Junction, TX

2:28 AM CDT on August 02, 2014 (GMT -0500)
Kimble County (KJCT) Elev 1749 ft | 30.51 °N, 99.77 °W | Change Station

Current weather conditions updated 37 minutes ago

Clear
Clear
74 °F
Feels Like 74 °F
N
5
Wind Variable Wind from ENE

Today is forecast to be nearly the same temperature as yesterday.

Today
High -- | Low -- °F
--% Chance of Precip.
Yesterday
High -- | Low -- °F
Precip. -- in
6:57 AM 8:32 PM
Waxing Crescent, 33% visible
Pressure 29.98 in
Visibility 10.0 miles
Clouds Clear
Dew Point 61 °F
Humidity 64%
Rainfall 0.00 in
Snow Depth Not available.
UV 0 out of 12
Pollen 5.60 out of 12
Air Quality Not available.
Flu Activity Not available.
METAR KJCT 020651Z AUTO 06004KT 10SM CLR 23/16 A3009 RMK AO2 SLP150 T02330161

More Conditions Fewer Conditions

Pressure 29.98 in
Visibility 10.0 miles
Clouds Clear
Dew Point 61 °F
Humidity 64%
Rainfall 0.00 in
Snow Depth Not available.
UV 0 out of 12
Pollen 5.60 out of 12
Air Quality Not available.
Flu Activity Not available.
METAR KJCT 020651Z AUTO 06004KT 10SM CLR 23/16 A3009 RMK AO2 SLP150 T02330161

More Conditions Fewer Conditions

10-Day Weather Forecast

Almanac

Astronomy

Aug. 02, 2014 Rise Set
Actual Time 6:57 AM CDT 8:32 PM CDT
Civil Twilight 6:31 AM CDT 8:58 PM CDT
Nautical Twilight 6:00 AM CDT 9:29 PM CDT
Astronomical Twilight 5:27 AM CDT 10:01 PM CDT
Moon 12:51 PM CDT No Moon Set
Length of Visible Light 14h 26m
Length of Day
13h 34m
Tomorrow will be 1m 24s shorter.
Waxing Crescent, 33% of the Moon is Illuminated
Today
Waxing Crescent
Aug 3
First Quarter
Aug 10
Full
Aug 17
Last Quarter
Aug 25
New

Today's Extremes

State Highs State Lows

Community

WunderPhotos

Upload Photos

1,739,830 photos uploaded!

Nearby

Snow Depth

Station Depth Elevation
No new snow has been reported.

Earthquake Activity

City Distance Mag. Time & Date
No recent earthquake activity has been reported nearby.
Minimum magnitude displayed is 2.5.

Coastal Water Temperatures

Place Temperature
No Stations Reporting

Nearby Weather Stations

Station Location Temp. Heat Index Dew Point Humidity Wind Precip. Elev Updated Type
LCRA North Llano River near Junction, Junction, TX 73 °F 76 °F 61 °F 65% North  at  - 0.00 in / hr 1721 ft 1:30 AM CDT MADIS
LCRA Junction 14 SE, Junction, TX 73 °F 76 °F 60 °F 62% North  at  - 0.00 in / hr 2063 ft 12:10 AM CDT MADIS
Three Star Ranch, Mountian Home, TX 70.6 °F 73 °F 62 °F 74% ENE  at  0.0 mph 0.00 in / hr 2192 ft 2:28 AM CDT Rapid Fire
LCRA Telegraph 5 SW, Telegraph, TX 76 °F 78 °F 57 °F 52% North  at  - 0.00 in / hr 1972 ft 12:45 AM CDT MADIS
London, TX 70.3 °F 73 °F 62 °F 74% ENE  at  0.0 mph 0.00 in / hr 1872 ft 2:28 AM CDT Normal
LCRA Junction 17 NW, Roosevelt, TX 76 °F 78 °F 56 °F 49% North  at  - 0.00 in / hr 2180 ft 10:40 PM CDT MADIS
Hight Ranch, London, TX 71.5 °F 74 °F 61 °F 70% ENE  at  0.0 mph 0.00 in / hr 1830 ft 2:27 AM CDT Rapid Fire

Show More Stations Show Fewer Stations